首页
METAR-TAF:

METAR-TAF

机场 :

比萨-圣朱斯托机场

比萨, 意大利

纬度: 43-41N, 经度: 010-23E, 海拔: 2米

当前天气观测

该预报发布于22分钟前的20:45 UTC
风速13节,风向西转西南
温度 24°C
湿度 74%
气压 1003 hPa
能见度10公里或以上
散云层高于3000英尺

METAR: LIRP 032045Z 25013KT 9999 SCT030 24/19 Q1003 TEMPO 24015G25KT

时间: 23:07 (21:07 UTC)

预报

该预报发布于16小时和7分钟前的05:00 UTC
预报有效从03日的 06点(UTC)到 04日的 06点(UTC)
风速15节,风向西,有时为25节阵风
能见度10公里或以上
散云层高于3000英尺
散云层高于6000英尺
几率 30% :
短暂存在
从 03日的 06点(UTC)到 03日的 12点(UTC)
能見度: 5000
多云层高于3000英尺
雨, 轻雾
短暂存在
从 03日的 21点(UTC)到 04日的 06点(UTC)
能見度: 5000
多云层高于3000英尺
雨, 轻雾
几率 30% :
短暂存在
从 04日的 00点(UTC)到 04日的 06点(UTC)
能見度: 3000
少量云层高于2000英尺, 积雨云.
雷暴, 雨

TAF: LIRP 030500Z 0306/0406 27015G25KT 9999 SCT030 SCT060 PROB30 TEMPO 0306/0312 5000 RA BR BKN030 TEMPO 0321/0406 5000 RA BR BKN030 PROB30 TEMPO 0400/0406 3000 TSRA FEW020CB

超过4000个机场的气象观测和天气预报(METAR&TAF报告)。

可查询的气象台以黄色和红色小点在地图上表示。

将鼠标移到小点上方,可查看气象台名称。

然后点击查看天气观测和预报。

如需切换地图:点击带黑十字的绿色按钮放大地图;点击带横线的绿色按钮缩小地图;或者点击绿色箭头查看邻近地区的地图。


METAR-TAF: